createdAt,value
2022-07-29T00:01:04.798Z,20.10
2022-07-29T00:03:31.788Z,20.10
2022-07-29T00:05:58.804Z,20.10
2022-07-29T00:08:27.761Z,20.10
2022-07-29T00:10:54.759Z,20.10
2022-07-29T00:13:32.537Z,19.80
2022-07-29T00:16:05.084Z,20.10
2022-07-29T00:18:32.974Z,20.10
2022-07-29T00:21:00.203Z,19.00
2022-07-29T00:23:27.454Z,20.00
2022-07-29T00:25:54.470Z,20.00
2022-07-29T00:28:21.436Z,20.00
2022-07-29T00:30:48.434Z,20.00
2022-07-29T00:33:15.424Z,19.90
2022-07-29T00:35:45.185Z,19.80
2022-07-29T00:38:16.918Z,19.90
2022-07-29T00:40:44.696Z,19.90
2022-07-29T00:43:13.100Z,19.90
2022-07-29T00:45:40.396Z,19.70
2022-07-29T00:48:09.622Z,19.80
2022-07-29T00:50:37.444Z,19.70
2022-07-29T00:53:06.589Z,19.70
2022-07-29T00:55:33.670Z,19.60
2022-07-29T00:58:01.480Z,19.60
2022-07-29T01:00:30.208Z,19.70
2022-07-29T01:02:57.295Z,19.70
2022-07-29T01:05:48.123Z,19.70
2022-07-29T01:08:16.467Z,19.60
2022-07-29T01:10:44.939Z,19.50
2022-07-29T01:13:12.965Z,19.50
2022-07-29T03:59:16.103Z,17.90
2022-07-29T04:01:44.490Z,17.90
2022-07-29T04:04:11.785Z,17.80
2022-07-29T04:06:48.217Z,17.80
2022-07-29T04:09:15.565Z,18.00
2022-07-29T04:12:01.601Z,18.00
2022-07-29T04:14:31.754Z,17.90
2022-07-29T04:16:58.742Z,17.70
2022-07-29T04:19:25.728Z,17.60
2022-07-29T04:21:52.666Z,17.60
2022-07-29T11:23:33.316Z,20.30
2022-07-29T11:26:18.523Z,23.10
2022-07-29T11:28:52.240Z,23.20
2022-07-29T11:31:44.941Z,23.40
2022-07-29T11:34:20.862Z,23.60
2022-07-29T11:37:15.819Z,23.30
2022-07-29T11:40:09.116Z,23.20
2022-07-29T11:42:36.035Z,23.80
2022-07-29T11:45:42.818Z,24.20
2022-07-29T11:50:49.748Z,24.00
2022-07-29T11:53:17.314Z,23.30
2022-07-29T11:55:50.985Z,23.10
2022-07-29T11:58:27.228Z,23.20
2022-07-29T12:03:43.638Z,23.80
2022-07-29T12:06:18.288Z,23.50
2022-07-29T12:08:45.943Z,23.60
2022-07-29T12:11:22.887Z,23.40
2022-07-29T12:13:52.350Z,23.40
2022-07-29T12:16:29.487Z,23.40
2022-07-29T12:21:30.216Z,22.80
2022-07-29T12:24:05.674Z,22.70
2022-07-29T12:26:36.928Z,22.80
2022-07-29T12:29:11.517Z,22.60
2022-07-29T12:31:45.556Z,22.50
2022-07-29T12:34:14.501Z,22.60
2022-07-29T12:36:43.245Z,22.50
2022-07-29T12:39:12.416Z,22.60
2022-07-29T12:41:40.082Z,22.60
2022-07-29T12:44:07.159Z,22.60
2022-07-29T12:46:34.288Z,22.80
2022-07-29T12:49:01.296Z,23.00
2022-07-29T12:51:37.396Z,23.10
2022-07-29T12:54:08.785Z,22.90
2022-07-29T12:56:44.527Z,23.00
2022-07-29T12:59:22.933Z,23.20
2022-07-29T13:01:52.943Z,23.50
2022-07-29T13:04:34.104Z,23.40
2022-07-29T13:07:04.765Z,23.60
2022-07-29T13:10:13.234Z,23.40
2022-07-29T13:12:40.663Z,23.40
2022-07-29T13:15:17.329Z,23.30
2022-07-29T13:17:44.935Z,23.30
2022-07-29T13:20:15.255Z,23.20
2022-07-29T13:22:43.531Z,23.30
2022-07-29T13:25:11.116Z,23.20
2022-07-29T13:27:40.486Z,23.10
2022-07-29T13:30:10.136Z,23.20
2022-07-29T13:32:37.556Z,23.80
2022-07-29T13:35:09.121Z,24.60
2022-07-29T13:37:39.556Z,25.50
2022-07-29T13:40:08.779Z,25.50
2022-07-29T13:42:36.258Z,26.30
2022-07-29T13:45:04.496Z,26.20
2022-07-29T13:47:32.639Z,26.10
2022-07-29T13:50:01.912Z,26.30
